Time;durP1;ratioP1;P1;durP2;ratioP2;P2;SDS_P1;SDS_P2;PMS_P1;PMS_P2;Temp;Humidity;BMP_temperature;BMP_pressure;BME280_temperature;BME280_humidity;BME280_pressure;Samples;Min_cycle;Max_cycle;Signal;HPM_P1;HPM_P2
2020/12/31 00:00:58;;;;;;;10.73;8.77;;;5.20;92.40;12.70;98656.00;;;;5050952;28;20652;-69
2020/12/31 00:03:24;;;;;;;12.90;8.73;;;5.20;92.40;12.50;98646.00;;;;5033471;28;20206;-68
2020/12/31 00:05:50;;;;;;;13.00;9.97;;;5.20;92.40;12.50;98658.00;;;;5033843;28;20558;-68
2020/12/31 00:08:15;;;;;;;10.50;8.73;;;5.20;92.40;12.60;98667.00;;;;5049412;28;20249;-68
2020/12/31 00:10:41;;;;;;;11.20;9.50;;;5.20;92.40;12.30;98656.00;;;;5050358;28;20940;-70
2020/12/31 00:13:07;;;;;;;12.70;9.33;;;5.20;92.40;12.60;98650.00;;;;5032603;28;20202;-69
2020/12/31 00:15:32;;;;;;;11.37;9.17;;;5.20;92.40;12.50;98660.00;;;;5049779;28;20178;-68
2020/12/31 00:17:58;;;;;;;11.73;9.40;;;5.20;92.40;12.50;98656.00;;;;5033421;28;20194;-68
2020/12/31 00:20:24;;;;;;;12.40;8.80;;;5.20;92.30;12.40;98669.00;;;;5014504;28;20193;-69
2020/12/31 00:22:50;;;;;;;11.47;9.20;;;5.20;92.30;12.20;98672.00;;;;5065563;28;20238;-68
2020/12/31 00:25:15;;;;;;;12.37;9.67;;;5.20;92.30;12.50;98671.00;;;;5049033;28;20221;-69
2020/12/31 00:27:41;;;;;;;11.20;8.50;;;5.20;92.30;12.60;98673.00;;;;5031552;28;20491;-68
2020/12/31 00:30:09;;;;;;;12.37;9.43;;;5.10;92.30;12.50;98676.00;;;;5048968;28;20277;-68
2020/12/31 00:32:34;;;;;;;11.55;8.77;;;5.10;92.30;12.60;98678.00;;;;5015958;28;20703;-68
2020/12/31 00:35:01;;;;;;;11.37;9.00;;;5.10;92.30;12.70;98688.00;;;;5047969;28;20178;-68
2020/12/31 00:37:35;;;;;;;12.10;9.38;;;5.10;92.30;12.50;98699.00;;;;5031932;28;20731;-68
2020/12/31 00:40:04;;;;;;;11.63;9.95;;;5.10;92.30;12.70;98704.00;;;;5048645;28;20180;-68
2020/12/31 00:42:30;;;;;;;11.80;8.90;;;5.10;92.20;12.40;98699.00;;;;5048224;28;20233;-68
2020/12/31 00:44:56;;;;;;;12.47;9.57;;;5.10;92.30;12.40;98700.00;;;;5049122;28;20208;-69
2020/12/31 00:47:21;;;;;;;12.23;9.73;;;5.10;92.20;12.60;98700.00;;;;5048193;28;20256;-69
2020/12/31 00:49:47;;;;;;;11.67;9.80;;;5.10;92.20;12.50;98695.00;;;;5048831;28;20318;-68
2020/12/31 00:52:13;;;;;;;13.07;9.60;;;5.10;92.20;12.60;98708.00;;;;5048145;28;20588;-68
2020/12/31 00:54:39;;;;;;;12.17;9.40;;;5.10;92.20;12.50;98711.00;;;;5049090;28;20329;-69
2020/12/31 00:57:04;;;;;;;13.40;9.53;;;5.10;92.20;12.70;98713.00;;;;5031164;28;20198;-68
2020/12/31 00:59:30;;;;;;;13.80;9.87;;;5.10;92.30;12.40;98723.00;;;;5049566;28;20189;-70
2020/12/31 01:01:55;;;;;;;14.30;9.90;;;5.10;92.20;12.40;98718.00;;;;5048201;28;20202;-68
2020/12/31 01:04:21;;;;;;;13.07;10.03;;;5.10;92.20;12.40;98713.00;;;;5046829;28;20632;-68
2020/12/31 01:06:47;;;;;;;12.93;10.07;;;5.10;92.20;12.70;98711.00;;;;5049387;28;20267;-69
2020/12/31 01:09:12;;;;;;;11.90;8.90;;;5.10;92.20;12.40;98706.00;;;;5081397;28;20190;-70
2020/12/31 01:11:39;;;;;;;12.13;9.63;;;5.10;92.20;12.50;98702.00;;;;5048853;28;20424;-69
2020/12/31 01:14:05;;;;;;;11.15;9.52;;;5.10;92.20;12.50;98702.00;;;;5047834;28;20186;-69
2020/12/31 01:16:31;;;;;;;11.15;7.78;;;5.10;92.20;12.60;98710.00;;;;4999166;28;20209;-69
2020/12/31 01:18:57;;;;;;;11.50;9.10;;;5.10;92.20;12.70;98711.00;;;;5013906;28;20652;-70
2020/12/31 01:21:22;;;;;;;14.97;10.27;;;5.10;92.20;12.50;98712.00;;;;5047208;28;20428;-68
2020/12/31 01:23:48;;;;;;;15.27;9.87;;;5.10;92.20;12.70;98704.00;;;;5031370;28;20201;-69
2020/12/31 01:26:14;;;;;;;11.70;8.40;;;5.10;92.20;12.60;98715.00;;;;5013978;28;20646;-68
2020/12/31 01:28:39;;;;;;;14.90;10.33;;;5.10;92.20;12.70;98713.00;;;;5014454;28;20221;-69
2020/12/31 01:31:08;;;;;;;11.40;8.57;;;5.10;92.20;12.50;98718.00;;;;5014784;28;20196;-69
2020/12/31 01:33:35;;;;;;;12.15;8.57;;;5.10;92.20;12.40;98721.00;;;;5047731;28;20202;-69
2020/12/31 01:36:07;;;;;;;11.05;8.52;;;5.10;92.20;12.70;98692.00;;;;5047290;28;20265;-68
2020/12/31 01:38:32;;;;;;;11.07;8.95;;;5.10;92.20;12.60;98715.00;;;;5048201;28;20208;-68
2020/12/31 01:40:58;;;;;;;11.90;9.37;;;5.10;92.20;12.50;98726.00;;;;5032401;28;20576;-68
2020/12/31 01:43:24;;;;;;;12.80;9.33;;;5.10;92.20;12.70;98730.00;;;;5031352;28;20221;-68
2020/12/31 01:45:49;;;;;;;12.70;10.30;;;5.10;92.20;12.40;98731.00;;;;5049716;28;20186;-68
2020/12/31 01:48:15;;;;;;;11.50;9.30;;;5.10;92.20;12.50;98726.00;;;;5047799;28;20217;-68
2020/12/31 01:50:41;;;;;;;13.27;10.03;;;5.10;92.20;12.40;98726.00;;;;4999220;28;20178;-68
2020/12/31 01:53:06;;;;;;;13.17;10.03;;;5.10;92.20;12.60;98731.00;;;;5014901;28;20225;-69
2020/12/31 01:55:32;;;;;;;12.50;9.50;;;5.10;92.20;12.40;98732.00;;;;5032132;28;20205;-68
2020/12/31 01:57:58;;;;;;;12.47;9.70;;;5.10;92.20;12.30;98738.00;;;;5031101;28;20205;-68
2020/12/31 02:00:23;;;;;;;13.77;10.30;;;5.10;92.20;12.70;98728.00;;;;5048090;28;20494;-69
2020/12/31 02:02:49;;;;;;;14.37;10.87;;;5.10;92.20;12.40;98739.00;;;;5015370;28;20728;-68
2020/12/31 02:05:15;;;;;;;12.53;9.70;;;5.10;92.20;12.50;98741.00;;;;4998754;28;20186;-68
2020/12/31 02:07:41;;;;;;;13.03;9.53;;;5.10;92.10;12.30;98746.00;;;;5030919;28;20241;-68
2020/12/31 02:10:07;;;;;;;11.52;9.13;;;5.10;92.20;12.30;98746.00;;;;5015044;28;20178;-68
2020/12/31 02:12:33;;;;;;;15.70;9.70;;;5.00;92.10;12.50;98756.00;;;;5049751;28;20198;-68
2020/12/31 02:14:58;;;;;;;12.30;9.90;;;5.10;92.10;12.70;98758.00;;;;5014890;28;20187;-68
2020/12/31 02:17:24;;;;;;;12.57;9.37;;;5.10;92.10;12.50;98760.00;;;;5015003;28;20427;-68
2020/12/31 02:19:50;;;;;;;12.90;9.63;;;5.00;92.10;12.50;98772.00;;;;5015249;28;20235;-68
2020/12/31 02:22:15;;;;;;;14.57;9.50;;;5.00;92.10;12.50;98768.00;;;;5047277;28;20213;-68
2020/12/31 02:24:42;;;;;;;11.80;8.90;;;5.00;92.10;12.30;98773.00;;;;5047859;28;20197;-68
2020/12/31 02:27:17;;;;;;;12.65;10.23;;;5.00;92.10;12.50;98775.00;;;;5014855;28;20815;-68
2020/12/31 02:29:43;;;;;;;12.30;9.82;;;5.00;92.10;12.40;98776.00;;;;5031602;28;20207;-68
2020/12/31 02:32:08;;;;;;;11.13;8.50;;;5.00;92.10;12.60;98783.00;;;;5046980;28;20206;-68
2020/12/31 02:34:34;;;;;;;13.83;10.60;;;5.00;92.10;12.50;98779.00;;;;5047402;28;20201;-69
2020/12/31 02:37:00;;;;;;;12.70;9.67;;;5.00;92.10;12.70;98795.00;;;;5033557;28;20894;-68
2020/12/31 02:39:25;;;;;;;11.37;8.53;;;5.00;92.10;12.50;98791.00;;;;5035015;28;20193;-68
2020/12/31 02:41:51;;;;;;;12.70;9.90;;;5.00;92.10;12.60;98760.00;;;;5052780;28;20240;-69
2020/12/31 02:44:17;;;;;;;13.40;10.90;;;5.00;92.10;12.50;98785.00;;;;5051880;28;20549;-68
2020/12/31 02:46:42;;;;;;;12.13;9.50;;;5.00;92.40;12.60;98780.00;;;;5051550;28;20214;-68
2020/12/31 02:49:08;;;;;;;11.63;8.80;;;5.00;92.10;12.30;98786.00;;;;5034906;28;20189;-68
2020/12/31 02:51:34;;;;;;;11.00;9.20;;;5.00;92.10;12.60;98779.00;;;;5053018;28;20186;-67
2020/12/31 02:54:00;;;;;;;14.40;10.27;;;5.00;92.10;12.40;98775.00;;;;5018384;28;20217;-68
2020/12/31 02:56:26;;;;;;;12.67;9.53;;;5.00;92.10;12.50;98771.00;;;;5034810;28;20201;-68
2020/12/31 02:58:52;;;;;;;12.27;9.40;;;5.00;92.10;12.40;98772.00;;;;5034889;28;20204;-69
2020/12/31 03:01:19;;;;;;;12.03;9.13;;;5.00;92.10;12.50;98762.00;;;;5034568;28;20414;-68
2020/12/31 03:03:44;;;;;;;12.60;9.93;;;5.00;92.10;12.50;98776.00;;;;5018021;28;20198;-69
2020/12/31 03:06:10;;;;;;;11.93;9.23;;;5.00;92.10;12.40;98775.00;;;;5034888;28;20269;-68
2020/12/31 03:08:37;;;;;;;12.40;9.73;;;5.00;92.10;12.50;98779.00;;;;5034449;28;20259;-69
2020/12/31 03:11:20;;;;;;;13.23;10.35;;;5.00;92.10;12.50;98776.00;;;;5018104;28;20648;-68
2020/12/31 03:13:47;;;;;;;12.48;10.13;;;5.00;92.10;12.40;98768.00;;;;5034045;28;20182;-68
2020/12/31 03:16:12;;;;;;;11.68;9.68;;;5.00;92.10;12.40;98779.00;;;;5033225;28;20182;-68
2020/12/31 03:18:38;;;;;;;13.03;10.70;;;5.00;92.10;12.50;98769.00;;;;5034689;28;20639;-68
2020/12/31 03:21:05;;;;;;;13.10;10.00;;;5.00;92.10;12.30;98766.00;;;;5051105;28;20178;-68
2020/12/31 03:23:30;;;;;;;12.77;9.82;;;5.00;92.10;12.40;98771.00;;;;5018041;28;20753;-68
2020/12/31 03:25:56;;;;;;;13.53;9.20;;;5.00;92.10;12.50;98760.00;;;;5052262;28;20476;-68
2020/12/31 03:28:22;;;;;;;15.03;9.70;;;5.00;92.10;12.40;98762.00;;;;5033924;28;20222;-69
2020/12/31 03:30:51;;;;;;;11.97;9.40;;;5.00;92.10;12.40;98759.00;;;;5051617;28;20186;-68
2020/12/31 03:33:18;;;;;;;13.55;9.95;;;5.00;92.10;12.30;98770.00;;;;5050893;28;20220;-68
2020/12/31 03:35:45;;;;;;;12.32;9.55;;;5.00;92.10;12.50;98763.00;;;;5034492;28;20175;-68
2020/12/31 03:38:12;;;;;;;13.75;9.70;;;5.00;92.10;12.60;98770.00;;;;5033490;28;20206;-68
2020/12/31 03:40:38;;;;;;;15.32;10.90;;;5.00;92.10;12.60;98766.00;;;;5034381;28;20178;-69
2020/12/31 03:43:04;;;;;;;13.68;10.40;;;5.00;92.10;12.50;98766.00;;;;5050951;28;20198;-68
2020/12/31 03:45:30;;;;;;;11.90;10.30;;;5.00;92.10;12.50;98766.00;;;;5034002;28;20185;-68
2020/12/31 03:47:55;;;;;;;13.20;9.80;;;5.00;92.10;12.40;98762.00;;;;5049841;28;20516;-68
2020/12/31 03:50:21;;;;;;;12.53;10.03;;;5.00;92.10;12.20;98763.00;;;;5050484;28;20431;-68
2020/12/31 03:52:48;;;;;;;12.85;10.00;;;4.90;92.00;12.50;98760.00;;;;5016532;28;20213;-68
2020/12/31 03:55:15;;;;;;;12.90;10.02;;;4.90;92.00;12.70;98760.00;;;;5050484;28;20177;-68
2020/12/31 03:57:40;;;;;;;13.65;10.93;;;4.90;92.00;12.50;98760.00;;;;5050250;28;20231;-69
2020/12/31 04:00:06;;;;;;;14.47;10.40;;;4.90;92.10;12.60;98748.00;;;;5016670;28;20214;-68
2020/12/31 04:02:32;;;;;;;11.27;9.20;;;5.00;92.10;12.30;98748.00;;;;5033902;28;20668;-68
2020/12/31 04:04:59;;;;;;;15.27;10.97;;;4.90;92.00;12.40;98736.00;;;;5033484;28;20182;-69
2020/12/31 04:07:24;;;;;;;14.45;11.18;;;4.90;92.00;12.50;98728.00;;;;5033022;28;20233;-68
2020/12/31 04:09:50;;;;;;;13.10;10.50;;;4.90;92.00;12.40;98719.00;;;;5033470;28;20553;-68
2020/12/31 04:12:16;;;;;;;14.00;10.80;;;4.90;92.00;12.20;98715.00;;;;5050266;28;20194;-68
2020/12/31 04:14:42;;;;;;;15.17;10.73;;;5.00;92.40;12.30;98713.00;;;;5049637;28;20184;-68
2020/12/31 04:17:07;;;;;;;12.97;10.70;;;4.90;92.00;12.30;98709.00;;;;5050231;28;20281;-68
2020/12/31 04:19:33;;;;;;;15.00;11.03;;;4.90;92.00;12.40;98711.00;;;;5033163;28;20216;-68
2020/12/31 04:21:59;;;;;;;15.20;11.57;;;4.90;92.00;12.20;98716.00;;;;5033074;28;20194;-67
2020/12/31 04:24:24;;;;;;;14.50;10.40;;;4.90;92.00;12.40;98702.00;;;;5049598;28;20260;-68
2020/12/31 04:26:51;;;;;;;11.73;9.77;;;4.90;92.40;12.30;98703.00;;;;5049629;28;20301;-68
2020/12/31 04:29:17;;;;;;;14.50;11.23;;;4.90;92.00;12.50;98696.00;;;;5032931;28;20415;-68
2020/12/31 04:31:43;;;;;;;15.63;11.60;;;4.90;92.00;12.60;98714.00;;;;5032456;28;20214;-68
2020/12/31 04:34:08;;;;;;;13.53;10.57;;;4.90;92.00;12.40;98723.00;;;;5032999;28;20416;-68
2020/12/31 04:36:34;;;;;;;12.47;9.67;;;4.90;92.00;12.40;98730.00;;;;5049667;28;20431;-68
2020/12/31 04:39:00;;;;;;;13.40;10.30;;;4.90;92.00;12.60;98718.00;;;;5050270;28;20182;-69
2020/12/31 04:41:25;;;;;;;14.03;10.60;;;4.90;92.30;12.60;98735.00;;;;5032618;28;20568;-68
2020/12/31 04:44:02;;;;;;;15.67;11.47;;;4.90;92.00;12.40;98728.00;;;;5049792;28;20504;-68
2020/12/31 04:46:30;;;;;;;15.55;10.70;;;4.90;92.00;12.50;98738.00;;;;5048798;28;20205;-68
2020/12/31 04:49:11;;;;;;;13.32;10.38;;;4.90;91.90;12.40;98725.00;;;;5000520;28;20186;-69
2020/12/31 04:51:37;;;;;;;13.73;10.00;;;4.90;92.00;12.50;98723.00;;;;5002823;28;20186;-68
2020/12/31 04:54:05;;;;;;;13.68;10.20;;;4.90;92.00;12.60;98726.00;;;;5032502;28;20182;-69
2020/12/31 04:56:34;;;;;;;14.50;10.95;;;4.90;92.00;12.40;98739.00;;;;5016398;28;20205;-68
2020/12/31 04:59:00;;;;;;;13.48;10.18;;;4.90;92.00;12.50;98735.00;;;;5016393;28;20182;-68
2020/12/31 05:01:25;;;;;;;13.20;10.83;;;4.90;92.00;12.50;98718.00;;;;5050478;28;20182;-68
2020/12/31 05:03:51;;;;;;;14.53;11.60;;;4.90;92.00;12.40;98740.00;;;;5049144;28;20707;-68
2020/12/31 05:06:18;;;;;;;14.40;10.60;;;4.90;92.00;12.60;98734.00;;;;5032364;28;20197;-69
2020/12/31 05:08:45;;;;;;;12.35;9.55;;;4.80;91.90;12.50;98741.00;;;;5015995;28;20220;-68
2020/12/31 05:11:10;;;;;;;13.55;10.95;;;4.90;92.00;12.60;98757.00;;;;5015790;28;20200;-69
2020/12/31 05:13:49;;;;;;;14.23;10.23;;;4.90;91.90;12.50;98769.00;;;;5032288;28;20217;-68
2020/12/31 05:16:29;;;;;;;12.50;9.82;;;4.90;91.90;12.70;98767.00;;;;5032711;28;20257;-68
2020/12/31 05:18:56;;;;;;;15.35;10.00;;;4.90;92.00;12.60;98755.00;;;;5032618;28;20186;-68
2020/12/31 05:21:21;;;;;;;13.40;10.23;;;4.90;92.00;12.40;98755.00;;;;5032057;28;20178;-68
2020/12/31 05:23:47;;;;;;;12.67;9.93;;;4.90;91.90;12.40;98752.00;;;;5048221;28;20182;-68
2020/12/31 05:26:28;;;;;;;13.53;10.83;;;4.90;91.90;12.60;98748.00;;;;5032458;28;20230;-68
2020/12/31 05:28:54;;;;;;;14.85;10.95;;;4.90;91.90;12.50;98751.00;;;;5015903;28;20587;-68
2020/12/31 05:31:23;;;;;;;14.40;11.00;;;4.80;91.90;12.50;98753.00;;;;5015416;28;20210;-68
2020/12/31 05:33:49;;;;;;;14.10;10.65;;;4.80;91.90;12.50;98756.00;;;;5048838;28;20224;-68
2020/12/31 05:36:16;;;;;;;16.83;12.40;;;4.90;91.90;12.30;98753.00;;;;5048648;28;20221;-68
2020/12/31 05:38:57;;;;;;;14.32;10.65;;;4.80;91.90;12.50;98757.00;;;;5031257;28;20864;-68
2020/12/31 05:41:30;;;;;;;13.20;10.40;;;4.80;91.90;12.60;98755.00;;;;5049578;28;20308;-68
2020/12/31 05:44:01;;;;;;;11.93;9.57;;;4.80;91.90;12.50;98760.00;;;;5016724;28;20193;-68
2020/12/31 05:46:29;;;;;;;14.20;10.73;;;4.80;91.90;12.50;98757.00;;;;5032329;28;20184;-68
2020/12/31 05:49:02;;;;;;;13.07;10.65;;;4.80;91.90;12.40;98765.00;;;;5014921;28;20202;-68
2020/12/31 05:51:38;;;;;;;14.65;11.88;;;4.80;91.90;12.50;98765.00;;;;5031405;28;20208;-68
2020/12/31 05:54:11;;;;;;;14.50;11.55;;;4.80;91.90;12.30;98760.00;;;;5032201;28;20177;-68
2020/12/31 05:56:38;;;;;;;13.68;10.70;;;4.80;91.90;12.50;98758.00;;;;5032031;28;20193;-68
2020/12/31 05:59:22;;;;;;;15.65;11.35;;;4.80;91.90;12.50;98771.00;;;;5015609;28;20189;-69
2020/12/31 06:02:01;;;;;;;14.85;10.20;;;4.80;91.90;12.50;98762.00;;;;5049771;28;20565;-68
2020/12/31 06:04:30;;;;;;;14.20;10.50;;;4.80;91.80;12.60;98774.00;;;;5031564;28;20177;-68
2020/12/31 06:07:01;;;;;;;15.05;11.35;;;4.80;91.90;12.40;98773.00;;;;5049495;28;20245;-68
2020/12/31 06:09:28;;;;;;;13.57;10.50;;;4.80;91.90;12.50;98770.00;;;;5015048;28;20645;-68
2020/12/31 06:12:02;;;;;;;16.05;11.45;;;4.80;91.80;12.50;98774.00;;;;5017875;28;20202;-68
2020/12/31 06:14:30;;;;;;;13.30;10.82;;;4.80;91.80;12.40;98769.00;;;;5053368;28;20273;-68
2020/12/31 06:17:01;;;;;;;12.32;9.85;;;4.80;91.80;12.50;98772.00;;;;5019111;28;20288;-68
2020/12/31 06:19:33;;;;;;;15.80;10.82;;;4.80;91.80;12.40;98779.00;;;;5035539;28;20181;-68
2020/12/31 06:22:08;;;;;;;15.23;10.75;;;4.80;91.80;12.50;98783.00;;;;5035806;28;20210;-68
2020/12/31 06:24:42;;;;;;;15.52;11.63;;;4.80;91.80;12.40;98786.00;;;;5051574;28;20186;-68
2020/12/31 06:27:14;;;;;;;14.15;10.80;;;4.80;91.80;12.40;98793.00;;;;5035526;28;20209;-68
2020/12/31 06:29:40;;;;;;;13.90;9.77;;;4.80;91.80;12.30;98791.00;;;;5036289;28;20232;-68
2020/12/31 06:32:34;;;;;;;14.53;10.90;;;4.80;91.80;12.40;98796.00;;;;5053340;28;20221;-68
2020/12/31 06:35:05;;;;;;;12.30;9.70;;;4.80;91.80;12.40;98795.00;;;;5039168;28;20286;-68
2020/12/31 06:37:31;;;;;;;15.10;10.52;;;4.80;91.80;12.40;98798.00;;;;5017915;28;20587;-68
2020/12/31 06:40:28;;;;;;;16.13;11.23;;;4.80;91.80;12.40;98782.00;;;;5053509;28;20182;-70
2020/12/31 06:43:11;;;;;;;12.73;10.38;;;4.70;91.80;12.40;98792.00;;;;5052265;28;20210;-68
2020/12/31 06:45:49;;;;;;;16.10;11.63;;;4.80;91.80;12.40;98781.00;;;;5004599;28;20655;-68
2020/12/31 06:48:34;;;;;;;14.95;10.57;;;4.80;91.80;12.30;98784.00;;;;5036806;28;20214;-68
2020/12/31 06:51:12;;;;;;;15.82;11.77;;;4.80;91.80;12.40;98805.00;;;;5035707;28;20185;-68
2020/12/31 06:53:48;;;;;;;15.38;11.10;;;4.70;91.80;12.40;98792.00;;;;5018815;28;20198;-68
2020/12/31 06:56:14;;;;;;;13.18;10.90;;;4.70;91.80;12.40;98795.00;;;;5035269;28;20680;-68
2020/12/31 06:58:41;;;;;;;15.67;11.20;;;4.80;91.80;12.30;98801.00;;;;5018809;28;20340;-68
2020/12/31 07:01:29;;;;;;;13.85;10.68;;;4.70;91.80;12.40;98785.00;;;;5035528;28;20459;-68
2020/12/31 07:03:58;;;;;;;13.27;11.20;;;4.70;91.70;12.20;98788.00;;;;5035246;28;20657;-69
2020/12/31 07:06:29;;;;;;;13.10;10.65;;;4.70;91.70;12.30;98788.00;;;;5035051;28;20193;-67
2020/12/31 07:09:00;;;;;;;13.93;10.98;;;4.70;91.80;12.30;98787.00;;;;5034656;28;20264;-68
2020/12/31 07:11:41;;;;;;;13.63;11.30;;;4.80;91.80;12.30;98793.00;;;;5051228;28;20178;-68
2020/12/31 07:14:18;;;;;;;13.35;11.35;;;4.70;91.70;12.20;98800.00;;;;5018225;28;20556;-69
2020/12/31 07:17:07;;;;;;;15.38;11.48;;;4.80;91.80;12.30;98785.00;;;;5052510;28;20731;-68
2020/12/31 07:19:35;;;;;;;12.98;9.85;;;4.70;91.70;12.30;98788.00;;;;5051550;28;20182;-68
2020/12/31 07:22:10;;;;;;;15.13;10.88;;;4.70;91.90;12.30;98802.00;;;;5034370;28;20724;-68
2020/12/31 07:24:50;;;;;;;13.35;9.90;;;4.80;91.80;12.40;98796.00;;;;5049945;28;20197;-69
2020/12/31 07:27:30;;;;;;;12.45;10.65;;;4.70;91.70;12.30;98798.00;;;;5017751;28;20587;-68
2020/12/31 07:30:08;;;;;;;12.18;9.80;;;4.70;91.70;12.30;98795.00;;;;5050978;28;20182;-68
2020/12/31 07:32:59;;;;;;;13.73;11.20;;;4.70;91.70;12.30;98795.00;;;;5052306;28;20198;-68
2020/12/31 07:35:28;;;;;;;15.00;10.80;;;4.70;91.70;12.40;98800.00;;;;5034790;28;20235;-68
2020/12/31 07:38:13;;;;;;;14.88;11.07;;;4.70;91.70;12.30;98793.00;;;;5048566;28;20206;-68
2020/12/31 07:40:50;;;;;;;13.90;10.50;;;4.70;91.70;12.40;98794.00;;;;5069735;28;20186;-68
2020/12/31 07:43:25;;;;;;;14.07;10.73;;;4.70;91.70;12.40;98767.00;;;;5050576;28;20200;-68
2020/12/31 07:45:55;;;;;;;15.50;11.05;;;4.70;91.70;12.30;98795.00;;;;5066738;28;20189;-68
2020/12/31 07:48:23;;;;;;;12.40;9.90;;;4.70;91.70;12.20;98780.00;;;;5066501;28;20214;-68
2020/12/31 07:51:05;;;;;;;13.27;10.38;;;4.70;91.70;12.30;98784.00;;;;5049904;28;20185;-68
2020/12/31 07:53:31;;;;;;;13.95;11.60;;;4.70;91.70;12.30;98774.00;;;;5049227;28;20229;-68
2020/12/31 07:55:57;;;;;;;14.17;11.07;;;4.70;91.70;12.30;98780.00;;;;5033500;28;20624;-69
2020/12/31 07:58:24;;;;;;;12.82;11.02;;;4.70;91.70;12.20;98784.00;;;;5015799;28;20214;-68
2020/12/31 08:01:17;;;;;;;15.02;11.35;;;4.70;91.70;12.20;98770.00;;;;5033094;28;20182;-68
2020/12/31 08:03:43;;;;;;;13.07;10.95;;;4.70;92.10;12.30;98787.00;;;;5018590;28;20214;-68
2020/12/31 08:06:09;;;;;;;14.20;11.80;;;4.70;91.70;12.40;98797.00;;;;5050060;28;20181;-68
2020/12/31 08:08:35;;;;;;;14.02;10.75;;;4.70;91.70;12.30;98792.00;;;;5016707;28;20213;-68
2020/12/31 08:11:10;;;;;;;13.93;10.80;;;4.70;91.70;12.50;98791.00;;;;5048105;28;20197;-68
2020/12/31 08:13:36;;;;;;;13.50;10.50;;;4.70;91.70;12.40;98784.00;;;;5065178;28;20248;-68
2020/12/31 08:16:02;;;;;;;12.10;10.45;;;4.70;91.70;12.40;98784.00;;;;5049078;28;20752;-69
2020/12/31 08:18:29;;;;;;;14.77;10.90;;;4.70;91.70;12.40;98794.00;;;;5031981;28;20225;-68
2020/12/31 08:20:56;;;;;;;14.50;10.55;;;4.70;91.70;12.30;98794.00;;;;5016560;28;20188;-68
2020/12/31 08:23:30;;;;;;;13.88;11.30;;;4.70;91.70;12.40;98783.00;;;;5015895;28;20244;-68
2020/12/31 08:25:57;;;;;;;15.60;11.68;;;4.70;91.70;12.20;98784.00;;;;5032044;28;20258;-69
2020/12/31 08:28:22;;;;;;;13.68;11.20;;;4.70;91.70;12.30;98788.00;;;;5015798;28;20209;-68
2020/12/31 08:30:48;;;;;;;13.93;12.27;;;4.70;91.70;12.40;98778.00;;;;5066239;28;20188;-69
2020/12/31 08:33:25;;;;;;;13.87;10.33;;;4.70;91.70;12.40;98780.00;;;;5064693;28;20607;-68
2020/12/31 08:35:51;;;;;;;14.00;10.93;;;4.70;91.70;12.50;98778.00;;;;5064638;28;20955;-68
2020/12/31 08:38:18;;;;;;;16.97;12.90;;;4.70;91.70;12.50;98780.00;;;;5064771;28;20238;-68
2020/12/31 08:40:58;;;;;;;13.38;11.05;;;4.70;91.70;12.30;98781.00;;;;5063654;28;20189;-68
2020/12/31 08:43:30;;;;;;;16.58;11.05;;;4.70;91.70;12.30;98796.00;;;;5064412;28;20229;-68
2020/12/31 08:45:57;;;;;;;14.95;11.48;;;4.60;91.70;12.40;98787.00;;;;5049100;28;20200;-68
2020/12/31 08:48:22;;;;;;;14.27;11.95;;;4.70;91.70;12.40;98796.00;;;;4998839;28;20313;-68
2020/12/31 08:51:10;;;;;;;13.33;10.37;;;4.70;91.70;12.40;98811.00;;;;5050037;28;20272;-68
2020/12/31 08:53:59;;;;;;;13.00;10.20;;;4.70;91.70;12.30;98804.00;;;;5047845;28;20198;-68
2020/12/31 08:56:29;;;;;;;14.55;12.00;;;4.70;91.70;12.30;98803.00;;;;5031542;28;20182;-69
2020/12/31 08:59:10;;;;;;;15.80;11.65;;;4.70;91.70;12.30;98804.00;;;;5048515;28;20186;-68
2020/12/31 09:01:37;;;;;;;12.10;9.75;;;4.70;91.70;12.30;98800.00;;;;5080882;28;20657;-68
2020/12/31 09:04:10;;;;;;;16.75;12.32;;;4.70;91.70;12.20;98793.00;;;;5030544;28;20181;-68
2020/12/31 09:06:42;;;;;;;13.07;10.60;;;4.70;91.70;12.20;98787.00;;;;5064496;28;20639;-68
2020/12/31 09:09:21;;;;;;;16.45;12.18;;;4.70;91.70;12.30;98801.00;;;;5063957;28;20177;-68
2020/12/31 09:11:55;;;;;;;13.32;11.35;;;4.70;91.70;12.10;98801.00;;;;5062348;28;20668;-69
2020/12/31 09:14:21;;;;;;;13.52;11.77;;;4.70;91.70;12.00;98802.00;;;;5081605;28;21069;-68
2020/12/31 09:16:46;;;;;;;16.90;12.37;;;4.70;91.70;12.00;98799.00;;;;5047446;28;20210;-68
2020/12/31 09:19:12;;;;;;;13.40;11.03;;;4.70;91.70;12.10;98806.00;;;;5064468;28;20240;-69
2020/12/31 09:21:38;;;;;;;12.33;11.03;;;4.70;91.70;12.10;98802.00;;;;5081624;28;20415;-69
2020/12/31 09:24:21;;;;;;;14.60;10.90;;;4.70;91.70;12.00;98799.00;;;;5063955;28;20183;-69
2020/12/31 09:26:57;;;;;;;13.65;11.88;;;4.70;91.70;12.20;98792.00;;;;5063904;28;20233;-69
2020/12/31 09:29:23;;;;;;;14.43;11.20;;;4.60;91.70;12.10;98793.00;;;;5064181;28;20184;-69
2020/12/31 09:31:49;;;;;;;13.25;10.98;;;4.70;91.70;12.10;98797.00;;;;5063700;28;20206;-69
2020/12/31 09:34:15;;;;;;;14.40;11.40;;;4.60;91.70;12.00;98795.00;;;;5064029;28;20177;-70
2020/12/31 09:36:41;;;;;;;16.60;11.60;;;4.70;91.70;12.20;98784.00;;;;5064887;28;20588;-69
2020/12/31 09:39:07;;;;;;;14.17;11.90;;;4.70;91.70;11.90;98777.00;;;;5048330;28;20657;-69
2020/12/31 09:41:33;;;;;;;14.60;11.20;;;4.70;91.70;12.10;98780.00;;;;5046986;28;20178;-69
2020/12/31 09:43:59;;;;;;;13.53;11.67;;;4.60;91.70;12.10;98775.00;;;;5063858;28;20178;-69
2020/12/31 09:46:24;;;;;;;14.73;11.60;;;4.60;91.70;12.30;98781.00;;;;5046789;28;20197;-69
2020/12/31 09:48:50;;;;;;;13.07;11.30;;;4.70;91.70;12.30;98735.00;;;;5049176;28;20451;-71
2020/12/31 09:51:17;;;;;;;14.75;11.60;;;4.60;91.70;12.20;98774.00;;;;5047261;28;20182;-70
2020/12/31 09:53:43;;;;;;;14.32;11.32;;;4.60;91.70;12.20;98769.00;;;;5048234;28;20208;-69
2020/12/31 09:56:10;;;;;;;14.73;11.40;;;4.60;91.70;12.30;98778.00;;;;5046994;28;20178;-69
2020/12/31 09:58:36;;;;;;;15.77;12.48;;;4.60;91.70;12.20;98770.00;;;;5047095;28;20252;-69
2020/12/31 10:01:02;;;;;;;14.63;11.47;;;4.60;91.70;12.30;98774.00;;;;5063982;28;20645;-71
2020/12/31 10:03:28;;;;;;;13.43;10.82;;;4.70;91.70;12.30;98769.00;;;;5047388;28;20190;-69
2020/12/31 10:05:54;;;;;;;14.07;11.27;;;4.70;91.70;12.20;98764.00;;;;5047466;28;20193;-70
2020/12/31 10:08:20;;;;;;;15.67;12.27;;;4.70;91.70;12.40;98763.00;;;;5047532;28;20454;-69
2020/12/31 10:10:46;;;;;;;14.38;11.25;;;4.60;91.70;12.20;98763.00;;;;5062844;28;20232;-70
2020/12/31 10:13:11;;;;;;;16.10;13.20;;;4.70;92.10;12.30;98754.00;;;;5047620;28;20611;-69
2020/12/31 10:15:37;;;;;;;16.63;11.80;;;4.60;91.70;12.10;98766.00;;;;5047191;28;20485;-69
2020/12/31 10:18:03;;;;;;;15.80;12.70;;;4.60;91.70;12.20;98746.00;;;;5064022;28;20431;-70
2020/12/31 10:20:29;;;;;;;15.43;12.33;;;4.70;91.70;12.20;98762.00;;;;5046959;28;20505;-69
2020/12/31 10:22:55;;;;;;;13.90;11.00;;;4.70;91.70;12.20;98760.00;;;;5047287;28;20652;-69
2020/12/31 10:25:20;;;;;;;13.47;11.33;;;4.70;91.70;12.10;98764.00;;;;5045908;28;20708;-69
2020/12/31 10:27:46;;;;;;;14.80;12.23;;;4.70;91.70;12.10;98753.00;;;;5064106;28;20454;-69
2020/12/31 10:30:12;;;;;;;15.73;11.77;;;4.60;91.70;12.30;98752.00;;;;5048808;28;20559;-70
2020/12/31 10:32:37;;;;;;;14.73;12.53;;;4.60;91.70;12.20;98745.00;;;;5063872;28;20273;-69
2020/12/31 10:35:04;;;;;;;15.70;12.33;;;4.70;91.70;12.10;98743.00;;;;5046909;28;20182;-70
2020/12/31 10:37:29;;;;;;;13.75;11.05;;;4.60;91.70;12.20;98749.00;;;;5030915;28;20251;-69
2020/12/31 10:39:55;;;;;;;16.23;11.67;;;4.70;91.70;12.20;98752.00;;;;5046425;28;20186;-71
2020/12/31 10:42:21;;;;;;;14.60;12.00;;;4.60;91.70;12.10;98748.00;;;;5048263;28;20198;-69
2020/12/31 10:44:47;;;;;;;15.03;12.47;;;4.70;91.70;12.20;98747.00;;;;5047065;28;20170;-69
2020/12/31 10:47:12;;;;;;;15.27;13.00;;;4.70;91.70;12.00;98748.00;;;;5047587;28;20693;-69
2020/12/31 10:49:38;;;;;;;15.20;11.90;;;4.60;91.70;12.30;98731.00;;;;5030427;28;20186;-71
2020/12/31 10:52:04;;;;;;;15.90;12.97;;;4.60;91.70;12.20;98727.00;;;;5030631;28;20292;-70
2020/12/31 10:54:30;;;;;;;15.97;12.47;;;4.70;91.70;12.30;98724.00;;;;5046972;28;20313;-70
2020/12/31 10:56:56;;;;;;;13.53;11.23;;;4.60;91.70;12.30;98711.00;;;;5047212;28;20204;-69